Time;durP1;ratioP1;P1;durP2;ratioP2;P2;SDS_P1;SDS_P2;PMS_P1;PMS_P2;Temp;Humidity;BMP_temperature;BMP_pressure;BME280_temperature;BME280_humidity;BME280_pressure;Samples;Min_cycle;Max_cycle;Signal;HPM_P1;HPM_P2
2021/07/17 00:02:00;;;;;;;3.23;2.63;;;19.40;95.80;;;;;;5052860;28;20495;-67
2021/07/17 00:04:28;;;;;;;4.13;3.00;;;19.40;96.00;;;;;;5052418;28;20443;-70
2021/07/17 00:06:57;;;;;;;3.23;2.00;;;19.40;96.10;;;;;;5048209;28;20464;-66
2021/07/17 00:09:24;;;;;;;3.53;2.43;;;19.40;96.20;;;;;;5053638;28;20468;-66
2021/07/17 00:11:54;;;;;;;3.10;2.50;;;19.40;96.20;;;;;;5035398;28;20508;-66
2021/07/17 00:14:23;;;;;;;4.70;2.70;;;19.40;96.20;;;;;;5035307;28;20438;-67
2021/07/17 00:16:50;;;;;;;4.90;2.40;;;19.40;96.30;;;;;;5035257;28;20509;-67
2021/07/17 00:19:18;;;;;;;3.43;1.70;;;19.40;96.40;;;;;;5035358;28;21025;-66
2021/07/17 00:21:46;;;;;;;3.00;2.10;;;19.30;96.40;;;;;;5035118;28;20504;-67
2021/07/17 00:24:13;;;;;;;3.73;2.30;;;19.30;96.60;;;;;;5035580;28;20520;-67
2021/07/17 00:26:40;;;;;;;3.40;2.40;;;19.30;96.70;;;;;;5051510;28;20984;-66
2021/07/17 00:29:07;;;;;;;6.00;2.87;;;19.30;97.00;;;;;;5042214;28;20470;-67
2021/07/17 00:31:34;;;;;;;4.23;2.77;;;19.30;97.10;;;;;;5035470;28;20956;-67
2021/07/17 00:34:01;;;;;;;8.80;2.53;;;19.20;97.50;;;;;;5055274;28;20528;-66
2021/07/17 00:36:28;;;;;;;4.30;2.77;;;19.20;97.70;;;;;;5051971;28;20526;-67
2021/07/17 00:39:11;;;;;;;4.00;2.53;;;19.20;97.80;;;;;;5049814;28;20546;-70
2021/07/17 00:41:38;;;;;;;5.10;2.60;;;19.20;98.00;;;;;;5053852;28;20498;-68
2021/07/17 00:44:12;;;;;;;4.67;2.80;;;19.20;98.20;;;;;;5033709;28;20438;-67
2021/07/17 00:46:39;;;;;;;4.67;2.70;;;19.10;98.30;;;;;;5045419;28;20441;-67
2021/07/17 00:49:10;;;;;;;3.20;2.30;;;19.10;98.40;;;;;;5033946;28;20442;-66
2021/07/17 00:51:37;;;;;;;5.63;3.00;;;19.10;98.50;;;;;;5051599;28;20525;-66
2021/07/17 00:54:05;;;;;;;4.57;2.80;;;19.10;98.70;;;;;;5054845;28;20471;-68
2021/07/17 00:56:36;;;;;;;3.20;2.40;;;19.10;98.90;;;;;;5054184;28;20876;-68
2021/07/17 00:59:16;;;;;;;4.77;3.30;;;19.10;98.80;;;;;;5054511;28;20485;-69
2021/07/17 01:01:51;;;;;;;6.43;2.87;;;19.10;98.80;;;;;;5053805;28;20464;-68
2021/07/17 01:04:19;;;;;;;4.90;2.70;;;19.10;98.70;;;;;;5048827;28;20462;-68
2021/07/17 01:06:49;;;;;;;4.50;3.27;;;19.10;98.70;;;;;;5048860;28;20927;-72
2021/07/17 01:09:16;;;;;;;5.40;3.00;;;19.10;98.60;;;;;;5053398;28;20490;-68
2021/07/17 01:11:45;;;;;;;2.80;2.40;;;19.10;98.90;;;;;;5039134;28;20484;-68
2021/07/17 01:14:13;;;;;;;7.30;3.07;;;19.10;98.80;;;;;;5052765;28;20433;-68
2021/07/17 01:16:41;;;;;;;4.80;3.90;;;19.10;98.70;;;;;;5052736;28;20441;-68
2021/07/17 01:19:13;;;;;;;3.50;2.77;;;19.10;99.00;;;;;;5051392;28;20477;-68
2021/07/17 01:21:43;;;;;;;4.37;2.97;;;19.10;98.80;;;;;;5053852;28;20445;-68
2021/07/17 01:24:10;;;;;;;6.27;3.13;;;19.00;99.00;;;;;;5041442;28;20430;-68
2021/07/17 01:26:40;;;;;;;3.83;2.77;;;19.00;99.20;;;;;;5033767;28;20445;-68
2021/07/17 01:29:08;;;;;;;3.53;2.87;;;19.00;99.20;;;;;;5034674;28;20527;-69
2021/07/17 01:31:35;;;;;;;7.60;4.10;;;19.00;99.30;;;;;;5033750;28;20488;-68
2021/07/17 01:34:02;;;;;;;6.53;4.03;;;19.00;99.40;;;;;;5045572;28;20868;-68
2021/07/17 01:36:29;;;;;;;5.00;4.00;;;19.00;99.30;;;;;;5053497;28;20892;-68
2021/07/17 01:38:58;;;;;;;4.37;3.87;;;19.00;99.40;;;;;;5042112;28;20442;-68
2021/07/17 01:41:25;;;;;;;5.60;4.33;;;18.90;99.50;;;;;;5033621;28;20438;-68
2021/07/17 01:43:55;;;;;;;4.77;4.37;;;18.90;99.60;;;;;;5034054;28;20904;-69
2021/07/17 01:46:24;;;;;;;5.67;4.23;;;19.00;99.80;;;;;;5033544;28;20801;-68
2021/07/17 01:48:52;;;;;;;5.80;3.30;;;18.90;99.80;;;;;;5042672;28;20847;-68
2021/07/17 01:51:19;;;;;;;3.23;2.30;;;18.90;99.90;;;;;;5053124;28;20440;-68
2021/07/17 01:53:46;;;;;;;3.60;2.70;;;18.90;99.90;;;;;;5044568;28;20489;-68
2021/07/17 01:56:15;;;;;;;3.57;2.60;;;18.90;99.90;;;;;;5033338;28;20438;-68
2021/07/17 01:58:42;;;;;;;4.27;3.10;;;18.90;99.90;;;;;;5034209;28;20995;-68
2021/07/17 02:01:10;;;;;;;3.47;2.60;;;18.90;99.90;;;;;;5033427;28;20919;-68
2021/07/17 02:03:37;;;;;;;5.10;2.20;;;18.80;99.90;;;;;;5048631;28;20440;-68
2021/07/17 02:06:04;;;;;;;3.90;2.53;;;18.80;99.90;;;;;;5053024;28;20449;-68
2021/07/17 02:08:32;;;;;;;2.90;2.60;;;18.80;99.90;;;;;;5038251;28;20512;-68
2021/07/17 02:11:02;;;;;;;3.17;2.40;;;18.80;99.90;;;;;;5033259;28;20529;-68
2021/07/17 02:13:33;;;;;;;3.00;2.50;;;18.80;99.90;;;;;;5045705;28;20832;-68
2021/07/17 02:16:01;;;;;;;4.93;2.57;;;18.80;99.90;;;;;;5051282;28;20441;-69
2021/07/17 02:18:31;;;;;;;4.03;2.97;;;18.80;99.90;;;;;;5043738;28;20484;-68
2021/07/17 02:21:00;;;;;;;4.10;2.60;;;18.80;99.90;;;;;;5032815;28;20463;-68
2021/07/17 02:23:27;;;;;;;4.27;2.60;;;18.80;99.90;;;;;;5048864;28;20441;-68
2021/07/17 02:25:56;;;;;;;3.80;2.80;;;18.80;99.90;;;;;;5052729;28;20949;-68
2021/07/17 02:28:23;;;;;;;4.10;2.87;;;18.80;99.90;;;;;;5037185;28;20434;-68
2021/07/17 02:30:53;;;;;;;4.73;3.10;;;18.80;99.90;;;;;;5032605;28;20450;-68
2021/07/17 02:33:20;;;;;;;3.03;2.50;;;18.80;99.90;;;;;;5046313;28;20573;-68
2021/07/17 02:35:47;;;;;;;4.57;3.73;;;18.80;99.90;;;;;;5052458;28;20514;-68
2021/07/17 02:38:15;;;;;;;3.50;2.80;;;18.80;99.90;;;;;;5039933;28;20434;-68
2021/07/17 02:40:44;;;;;;;4.50;3.50;;;18.80;99.90;;;;;;5032738;28;20430;-68
2021/07/17 02:43:13;;;;;;;3.80;3.07;;;18.80;99.90;;;;;;5043590;28;20463;-68
2021/07/17 02:45:40;;;;;;;3.37;2.73;;;18.80;99.90;;;;;;5052535;28;20440;-68
2021/07/17 02:48:08;;;;;;;4.23;2.57;;;18.80;99.90;;;;;;5041841;28;20441;-68
2021/07/17 02:50:35;;;;;;;5.57;3.93;;;18.80;99.90;;;;;;5032372;28;20935;-68
2021/07/17 02:53:02;;;;;;;5.10;4.00;;;18.80;99.90;;;;;;5040756;28;20476;-68
2021/07/17 02:55:29;;;;;;;6.10;3.87;;;18.80;99.90;;;;;;5052418;28;20436;-68
2021/07/17 02:57:56;;;;;;;3.30;2.90;;;18.80;99.90;;;;;;5044582;28;20524;-68
2021/07/17 03:00:33;;;;;;;4.33;2.90;;;18.80;99.90;;;;;;5032321;28;20508;-68
2021/07/17 03:03:00;;;;;;;4.30;3.07;;;18.80;99.90;;;;;;5039010;28;20979;-68
2021/07/17 03:05:28;;;;;;;4.20;3.10;;;18.80;99.90;;;;;;5052243;28;20436;-68
2021/07/17 03:07:56;;;;;;;3.47;2.97;;;18.80;99.90;;;;;;5045992;28;20784;-68
2021/07/17 03:10:23;;;;;;;3.50;2.73;;;18.80;99.90;;;;;;5035347;28;20433;-68
2021/07/17 03:12:53;;;;;;;3.20;2.47;;;18.80;99.90;;;;;;5052122;28;20471;-68
2021/07/17 03:15:21;;;;;;;4.03;2.90;;;18.80;99.90;;;;;;5049165;28;20496;-68
2021/07/17 03:17:50;;;;;;;3.53;3.23;;;18.80;99.90;;;;;;5031958;28;20852;-68
2021/07/17 03:20:17;;;;;;;4.40;3.30;;;18.80;99.90;;;;;;5032901;28;20442;-69
2021/07/17 03:22:46;;;;;;;4.20;2.70;;;18.80;99.90;;;;;;5052024;28;20499;-68
2021/07/17 03:25:14;;;;;;;4.20;3.40;;;18.80;99.90;;;;;;5051685;28;20498;-68
2021/07/17 03:27:41;;;;;;;3.93;3.53;;;18.80;99.90;;;;;;5034624;28;20473;-68
2021/07/17 03:30:09;;;;;;;6.33;3.50;;;18.80;99.90;;;;;;5036034;28;20437;-68
2021/07/17 03:32:36;;;;;;;10.50;4.00;;;18.80;99.90;;;;;;5054474;28;20555;-68
2021/07/17 03:35:04;;;;;;;4.60;3.93;;;18.80;99.90;;;;;;5053451;28;20551;-68
2021/07/17 03:37:31;;;;;;;4.10;3.60;;;18.80;99.90;;;;;;5035471;28;20441;-68
2021/07/17 03:40:00;;;;;;;4.00;3.60;;;18.80;99.90;;;;;;5051011;28;20441;-68
2021/07/17 03:42:27;;;;;;;5.80;3.43;;;18.80;99.90;;;;;;5055572;28;20439;-68
2021/07/17 03:44:54;;;;;;;4.87;3.60;;;18.80;99.90;;;;;;5041170;28;20445;-68
2021/07/17 03:47:21;;;;;;;5.90;3.50;;;18.80;99.90;;;;;;5035660;28;21009;-68
2021/07/17 03:49:48;;;;;;;4.47;3.93;;;18.90;99.90;;;;;;5048265;28;20437;-68
2021/07/17 03:52:16;;;;;;;4.30;3.13;;;18.90;99.90;;;;;;5055363;28;20436;-68
2021/07/17 03:54:43;;;;;;;8.20;5.07;;;18.90;99.90;;;;;;5043528;28;20979;-68
2021/07/17 03:57:12;;;;;;;4.30;3.70;;;18.90;99.90;;;;;;5035649;28;20433;-68
2021/07/17 03:59:39;;;;;;;4.60;3.77;;;18.90;99.90;;;;;;5045348;28;20451;-68
2021/07/17 04:02:06;;;;;;;4.70;4.07;;;18.90;99.90;;;;;;5055602;28;20448;-68
2021/07/17 04:04:39;;;;;;;5.57;4.13;;;18.90;99.90;;;;;;5046334;28;20487;-68
2021/07/17 04:07:06;;;;;;;5.00;2.93;;;19.00;99.90;;;;;;5041863;28;20428;-68
2021/07/17 04:09:33;;;;;;;5.10;4.17;;;18.90;99.90;;;;;;5055283;28;20437;-68
2021/07/17 04:12:00;;;;;;;3.93;3.47;;;19.00;99.90;;;;;;5049963;28;20487;-68
2021/07/17 04:14:28;;;;;;;4.60;4.20;;;19.00;99.90;;;;;;5035653;28;20488;-68
2021/07/17 04:16:55;;;;;;;4.30;3.63;;;18.90;99.90;;;;;;5038749;28;20487;-68
2021/07/17 04:19:22;;;;;;;4.83;3.43;;;19.00;99.90;;;;;;5055247;28;20465;-68
2021/07/17 04:21:51;;;;;;;4.90;4.10;;;19.00;99.90;;;;;;5052372;28;20511;-68
2021/07/17 04:24:22;;;;;;;5.93;3.40;;;19.00;99.90;;;;;;5035488;28;20845;-68
2021/07/17 04:26:49;;;;;;;4.53;4.07;;;19.00;99.90;;;;;;5036611;28;20448;-68
2021/07/17 04:29:21;;;;;;;3.83;3.30;;;19.00;99.90;;;;;;5055085;28;20440;-68
2021/07/17 04:31:49;;;;;;;5.10;3.60;;;19.00;99.90;;;;;;5053310;28;20433;-68
2021/07/17 04:34:18;;;;;;;5.30;4.60;;;19.00;99.90;;;;;;5034986;28;20879;-68
2021/07/17 04:36:45;;;;;;;5.00;4.50;;;19.00;99.90;;;;;;5035734;28;20433;-68
2021/07/17 04:39:12;;;;;;;7.50;3.57;;;19.00;99.90;;;;;;5034752;28;20445;-68
2021/07/17 04:41:39;;;;;;;4.70;3.87;;;19.00;99.90;;;;;;5036598;28;20495;-68
2021/07/17 04:44:06;;;;;;;4.73;3.93;;;19.00;99.90;;;;;;5054690;28;20445;-68
2021/07/17 04:46:33;;;;;;;5.80;4.20;;;19.00;99.90;;;;;;5053596;28;20899;-71
2021/07/17 04:49:01;;;;;;;6.23;4.30;;;19.10;99.90;;;;;;5053641;28;20473;-68
2021/07/17 04:51:30;;;;;;;6.10;4.10;;;19.10;99.90;;;;;;5054186;28;20429;-69
2021/07/17 04:53:57;;;;;;;5.97;5.37;;;19.10;99.90;;;;;;5054210;28;21028;-68
2021/07/17 04:56:24;;;;;;;8.87;5.70;;;19.10;99.90;;;;;;5054349;28;20433;-68
2021/07/17 04:58:52;;;;;;;8.07;5.37;;;19.10;99.90;;;;;;5053517;28;20524;-68
2021/07/17 05:01:19;;;;;;;5.50;4.63;;;19.20;99.90;;;;;;5052683;28;20503;-68
2021/07/17 05:03:49;;;;;;;4.70;4.17;;;19.20;99.90;;;;;;5034025;28;20472;-69
2021/07/17 05:06:18;;;;;;;5.33;4.30;;;19.20;99.90;;;;;;5035380;28;20472;-69
2021/07/17 05:08:45;;;;;;;5.77;5.27;;;19.20;99.90;;;;;;5033760;28;20441;-68
2021/07/17 05:11:12;;;;;;;5.10;4.57;;;19.20;99.90;;;;;;5033411;28;20449;-70
2021/07/17 05:13:39;;;;;;;6.73;4.77;;;19.20;99.90;;;;;;5037246;28;20575;-68
2021/07/17 05:16:06;;;;;;;5.63;5.00;;;19.20;99.90;;;;;;5050804;28;20473;-68
2021/07/17 05:18:33;;;;;;;5.87;5.27;;;19.20;99.90;;;;;;5050173;28;21032;-68
2021/07/17 05:21:00;;;;;;;6.57;5.10;;;19.20;99.90;;;;;;5051092;28;20438;-71
2021/07/17 05:23:33;;;;;;;5.73;5.07;;;19.20;99.90;;;;;;5048241;28;20935;-68
2021/07/17 05:26:00;;;;;;;5.90;5.30;;;19.20;99.90;;;;;;5051111;28;20433;-68
2021/07/17 05:28:32;;;;;;;6.70;6.10;;;19.20;99.90;;;;;;5046061;28;20524;-68
2021/07/17 05:30:59;;;;;;;6.33;5.73;;;19.20;99.90;;;;;;5050898;28;20437;-68
2021/07/17 05:33:26;;;;;;;6.30;5.70;;;19.20;99.90;;;;;;5033172;28;20561;-69
2021/07/17 05:35:54;;;;;;;7.40;6.00;;;19.30;99.90;;;;;;5039415;28;20433;-68
2021/07/17 05:38:22;;;;;;;9.03;7.37;;;19.30;99.90;;;;;;5051258;28;20433;-69
2021/07/17 05:40:51;;;;;;;8.70;6.93;;;19.30;99.90;;;;;;5050248;28;20445;-69
2021/07/17 05:43:18;;;;;;;7.87;7.00;;;19.40;99.90;;;;;;5033149;28;20442;-68
2021/07/17 05:45:49;;;;;;;12.70;7.80;;;19.50;99.90;;;;;;5033093;28;20469;-69
2021/07/17 05:48:18;;;;;;;12.13;8.53;;;19.50;99.90;;;;;;5033068;28;20450;-69
2021/07/17 05:50:48;;;;;;;11.60;9.30;;;19.50;99.90;;;;;;5044886;28;20467;-68
2021/07/17 05:53:15;;;;;;;10.73;8.80;;;19.50;99.90;;;;;;5050446;28;20454;-68
2021/07/17 05:55:43;;;;;;;13.43;9.93;;;19.50;99.90;;;;;;5049943;28;20461;-68
2021/07/17 05:58:13;;;;;;;16.07;11.00;;;19.50;99.90;;;;;;5050033;28;20437;-68
2021/07/17 06:00:44;;;;;;;13.93;11.33;;;19.50;99.90;;;;;;5049671;28;20481;-68
2021/07/17 06:03:11;;;;;;;16.93;11.40;;;19.50;99.90;;;;;;5050777;28;20448;-68
2021/07/17 06:05:39;;;;;;;14.03;10.97;;;19.60;99.90;;;;;;5045452;28;20838;-69
2021/07/17 06:08:06;;;;;;;18.00;12.93;;;19.60;99.90;;;;;;5032913;28;20473;-68
2021/07/17 06:10:41;;;;;;;16.60;12.23;;;19.60;99.90;;;;;;5033015;28;20565;-68
2021/07/17 06:13:12;;;;;;;14.80;11.77;;;19.60;99.90;;;;;;5030973;28;20441;-69
2021/07/17 06:15:41;;;;;;;19.07;14.70;;;19.60;99.90;;;;;;5032715;28;20489;-68
2021/07/17 06:18:08;;;;;;;19.30;14.20;;;19.60;99.90;;;;;;5032292;28;20505;-68
2021/07/17 06:20:36;;;;;;;21.00;14.13;;;19.60;99.90;;;;;;5031735;28;20442;-69
2021/07/17 06:23:03;;;;;;;26.43;17.03;;;19.60;99.90;;;;;;5043857;28;20490;-68
2021/07/17 06:25:30;;;;;;;21.20;16.60;;;19.70;99.90;;;;;;5031323;28;20499;-68
2021/07/17 06:27:57;;;;;;;19.90;16.20;;;19.70;99.90;;;;;;5046951;28;20472;-68
2021/07/17 06:30:27;;;;;;;20.33;16.43;;;19.70;99.90;;;;;;5048923;28;20444;-69
2021/07/17 06:32:53;;;;;;;23.67;16.30;;;19.70;99.90;;;;;;5034591;28;20499;-68
2021/07/17 06:35:21;;;;;;;22.90;17.07;;;19.70;99.90;;;;;;5031734;28;21361;-69
2021/07/17 06:37:48;;;;;;;23.70;18.13;;;19.80;99.90;;;;;;5031625;28;20434;-68
2021/07/17 06:40:17;;;;;;;22.73;15.67;;;19.80;99.90;;;;;;5031525;28;20545;-69
2021/07/17 06:42:45;;;;;;;23.17;15.70;;;19.90;99.90;;;;;;5043192;28;20518;-68
2021/07/17 06:45:15;;;;;;;21.53;16.40;;;19.80;99.90;;;;;;5033104;28;20812;-68
2021/07/17 06:47:44;;;;;;;25.87;17.80;;;19.90;99.90;;;;;;5031784;28;20520;-69
2021/07/17 06:50:13;;;;;;;26.23;16.50;;;19.90;99.90;;;;;;5040867;28;20930;-69
2021/07/17 06:52:41;;;;;;;24.90;17.30;;;19.90;99.90;;;;;;5048837;28;20514;-69
2021/07/17 06:55:13;;;;;;;21.53;17.27;;;20.00;99.90;;;;;;5032659;28;20469;-69
2021/07/17 06:57:41;;;;;;;21.77;16.77;;;20.00;99.90;;;;;;5045525;28;20491;-68
2021/07/17 07:00:11;;;;;;;22.73;16.50;;;20.00;99.90;;;;;;5047974;28;20441;-69
2021/07/17 07:02:39;;;;;;;23.67;17.40;;;20.00;99.90;;;;;;5047318;28;20437;-69
2021/07/17 07:05:10;;;;;;;22.67;17.70;;;20.00;99.90;;;;;;5043891;28;20846;-68
2021/07/17 07:07:39;;;;;;;25.97;17.03;;;20.00;99.90;;;;;;5048254;28;20436;-68
2021/07/17 07:10:08;;;;;;;25.30;16.73;;;20.00;99.90;;;;;;5040022;28;20445;-68
2021/07/17 07:12:37;;;;;;;21.27;17.37;;;20.10;99.90;;;;;;5031222;28;20434;-69
2021/07/17 07:15:06;;;;;;;22.40;16.30;;;20.10;99.90;;;;;;5031042;28;20528;-68
2021/07/17 07:17:33;;;;;;;23.47;18.40;;;20.00;99.90;;;;;;4988014;28;1222316;-68
2021/07/17 07:20:00;;;;;;;25.27;17.30;;;20.00;99.90;;;;;;5048023;28;20543;-68
2021/07/17 07:22:35;;;;;;;24.77;17.87;;;20.00;99.90;;;;;;5035508;28;20939;-68
2021/07/17 07:25:09;;;;;;;22.93;17.67;;;20.00;99.90;;;;;;5046597;28;20475;-68
2021/07/17 07:27:37;;;;;;;22.07;16.53;;;20.00;99.90;;;;;;5049332;28;20808;-68
2021/07/17 07:30:05;;;;;;;26.50;19.47;;;20.10;99.90;;;;;;5048808;28;20486;-68
2021/07/17 07:32:34;;;;;;;25.13;19.33;;;20.10;99.90;;;;;;5048428;28;20472;-68
2021/07/17 07:35:05;;;;;;;23.40;17.90;;;20.20;99.90;;;;;;5047356;28;20481;-68
2021/07/17 07:37:34;;;;;;;23.60;17.20;;;20.30;99.90;;;;;;5048107;28;20441;-68
2021/07/17 07:40:00;;;;;;;22.30;17.50;;;20.40;99.90;;;;;;5049348;28;20782;-71
2021/07/17 07:42:28;;;;;;;22.40;16.20;;;20.60;99.90;;;;;;5044479;28;20520;-68
2021/07/17 07:44:55;;;;;;;29.53;18.50;;;20.70;99.90;;;;;;5051008;28;20850;-68
2021/07/17 07:47:23;;;;;;;21.67;14.70;;;20.80;99.90;;;;;;5043814;28;20461;-68
2021/07/17 07:49:52;;;;;;;23.43;15.97;;;20.80;99.90;;;;;;5032548;28;20448;-68
2021/07/17 07:52:19;;;;;;;18.13;14.43;;;20.90;99.90;;;;;;5046573;28;20454;-68
2021/07/17 07:54:48;;;;;;;21.00;13.23;;;20.80;99.90;;;;;;5052083;28;21021;-68
2021/07/17 07:57:15;;;;;;;20.23;14.43;;;20.80;99.90;;;;;;5052513;28;20532;-68
2021/07/17 07:59:46;;;;;;;20.93;15.70;;;20.80;99.90;;;;;;5052490;28;20472;-68
2021/07/17 08:02:13;;;;;;;17.63;14.97;;;20.80;99.90;;;;;;5052414;28;20472;-68
2021/07/17 08:04:40;;;;;;;17.20;13.67;;;20.80;99.90;;;;;;5052486;28;20492;-68
2021/07/17 08:07:08;;;;;;;16.57;14.00;;;20.80;99.90;;;;;;5050009;28;20824;-69
2021/07/17 08:09:38;;;;;;;16.50;13.53;;;20.70;99.90;;;;;;5049358;28;20445;-71
2021/07/17 08:12:25;;;;;;;16.40;13.47;;;20.70;99.90;;;;;;5029618;28;20639;-69
2021/07/17 08:14:53;;;;;;;14.13;12.13;;;20.70;99.90;;;;;;5034732;28;20568;-69
2021/07/17 08:17:20;;;;;;;18.10;13.63;;;20.70;99.90;;;;;;5053685;28;20479;-69
2021/07/17 08:19:47;;;;;;;15.10;12.53;;;20.70;99.90;;;;;;5053943;28;20433;-70
2021/07/17 08:22:17;;;;;;;16.93;12.40;;;20.60;99.90;;;;;;5035455;28;20516;-68
2021/07/17 08:24:50;;;;;;;16.57;14.40;;;20.60;99.90;;;;;;5035340;28;20520;-69
2021/07/17 08:27:27;;;;;;;15.17;12.93;;;20.50;99.90;;;;;;5034997;28;20900;-68
2021/07/17 08:30:00;;;;;;;16.47;11.83;;;20.50;99.90;;;;;;5035103;28;20883;-69
2021/07/17 08:32:29;;;;;;;17.53;13.30;;;20.50;99.90;;;;;;5033911;28;20520;-68
2021/07/17 08:34:56;;;;;;;17.40;12.47;;;20.50;99.90;;;;;;5049100;28;20507;-68
2021/07/17 08:37:23;;;;;;;15.70;12.73;;;20.50;99.90;;;;;;5051389;28;20512;-70
2021/07/17 08:39:56;;;;;;;15.67;13.10;;;20.50;99.90;;;;;;5039835;28;20429;-69
2021/07/17 08:42:27;;;;;;;15.43;12.70;;;20.50;99.90;;;;;;5034218;28;20829;-69
2021/07/17 08:44:56;;;;;;;17.13;12.47;;;20.50;99.90;;;;;;5034501;28;20520;-69
2021/07/17 08:47:29;;;;;;;15.30;12.93;;;20.50;99.90;;;;;;5033860;28;20516;-69
2021/07/17 08:49:57;;;;;;;13.90;12.50;;;20.50;99.90;;;;;;5034249;28;21016;-68
2021/07/17 08:52:27;;;;;;;16.00;13.57;;;20.50;99.90;;;;;;5034741;28;20780;-69
2021/07/17 08:54:56;;;;;;;15.50;12.73;;;20.50;99.90;;;;;;5036714;28;20477;-69
2021/07/17 08:57:23;;;;;;;15.10;11.73;;;20.60;99.90;;;;;;5033363;28;20477;-68
2021/07/17 08:59:51;;;;;;;15.33;12.93;;;20.60;99.90;;;;;;5032687;28;20521;-69
2021/07/17 09:02:19;;;;;;;15.87;12.83;;;20.60;99.90;;;;;;5033643;28;20437;-68
2021/07/17 09:04:46;;;;;;;15.53;11.30;;;20.70;99.90;;;;;;5038051;28;20450;-68
2021/07/17 09:07:20;;;;;;;14.07;10.33;;;20.80;99.90;;;;;;5033364;28;20445;-68
2021/07/17 09:09:49;;;;;;;12.93;10.40;;;20.80;99.90;;;;;;5034426;28;20846;-69
2021/07/17 09:12:23;;;;;;;13.30;11.07;;;20.90;99.90;;;;;;5033289;28;20840;-69
2021/07/17 09:14:51;;;;;;;14.40;11.60;;;20.90;99.90;;;;;;5034284;28;20508;-68
2021/07/17 09:17:28;;;;;;;14.20;11.90;;;21.00;99.90;;;;;;5032788;28;20484;-68
2021/07/17 09:19:57;;;;;;;10.17;8.70;;;21.20;99.90;;;;;;5034185;28;20473;-68
2021/07/17 09:22:35;;;;;;;11.97;9.70;;;21.20;99.90;;;;;;5033140;28;20839;-68
2021/07/17 09:25:14;;;;;;;12.73;9.10;;;21.30;99.80;;;;;;5033090;28;20440;-68
2021/07/17 09:27:41;;;;;;;12.23;10.07;;;21.30;99.60;;;;;;5035462;28;20847;-68
2021/07/17 09:30:32;;;;;;;11.70;9.53;;;21.40;99.60;;;;;;5035677;28;20469;-68
2021/07/17 09:33:02;;;;;;;16.93;9.57;;;21.50;99.10;;;;;;5037151;28;20887;-69
2021/07/17 09:35:50;;;;;;;11.80;9.30;;;21.70;98.80;;;;;;5026357;28;20579;-70
2021/07/17 09:38:18;;;;;;;11.20;9.37;;;21.80;98.40;;;;;;5030746;28;20939;-69
2021/07/17 09:40:48;;;;;;;13.03;10.33;;;21.80;97.80;;;;;;5044264;28;21006;-68
2021/07/17 09:43:27;;;;;;;16.10;10.60;;;21.70;97.40;;;;;;5038384;28;20919;-69
2021/07/17 09:45:54;;;;;;;15.80;11.10;;;21.60;97.60;;;;;;5043325;28;20543;-69
2021/07/17 09:48:28;;;;;;;16.23;11.93;;;21.60;97.60;;;;;;5032780;28;20540;-68
2021/07/17 09:50:59;;;;;;;17.23;13.10;;;21.60;97.80;;;;;;5033360;28;20452;-69
2021/07/17 09:53:46;;;;;;;14.27;12.77;;;21.60;97.70;;;;;;5037216;28;20470;-68
2021/07/17 09:56:15;;;;;;;16.43;12.30;;;21.60;97.60;;;;;;5050497;28;20516;-68
2021/07/17 09:58:46;;;;;;;16.53;12.23;;;21.60;97.20;;;;;;5039797;28;20517;-68
2021/07/17 10:01:33;;;;;;;15.20;12.57;;;21.50;97.10;;;;;;5032290;28;20973;-69
2021/07/17 10:04:08;;;;;;;22.53;15.40;;;21.50;97.30;;;;;;5039279;28;20429;-69
2021/07/17 10:06:41;;;;;;;16.53;13.23;;;21.60;97.40;;;;;;5030989;28;20433;-69
2021/07/17 10:09:24;;;;;;;16.40;12.80;;;21.60;97.00;;;;;;5032361;28;20461;-68
2021/07/17 10:11:54;;;;;;;17.67;12.93;;;21.60;96.70;;;;;;5031128;28;20441;-69
2021/07/17 10:14:22;;;;;;;17.73;14.40;;;21.50;96.70;;;;;;5033211;28;20532;-68
2021/07/17 10:16:55;;;;;;;20.80;14.10;;;21.50;96.80;;;;;;5033183;28;20520;-69
2021/07/17 10:19:24;;;;;;;21.30;16.87;;;21.50;97.00;;;;;;5032947;28;20516;-68
2021/07/17 10:21:52;;;;;;;19.90;15.20;;;21.50;97.10;;;;;;5033127;28;20465;-68
2021/07/17 10:24:20;;;;;;;21.57;15.60;;;21.50;96.90;;;;;;5030863;28;20517;-70
2021/07/17 10:26:49;;;;;;;19.90;14.93;;;21.60;96.80;;;;;;5039677;28;20922;-69
2021/07/17 10:29:17;;;;;;;24.27;15.60;;;21.60;96.70;;;;;;5032789;28;20438;-69
2021/07/17 10:31:45;;;;;;;18.10;14.90;;;21.60;96.50;;;;;;5032991;28;20430;-68
2021/07/17 10:34:12;;;;;;;22.67;16.30;;;21.60;96.60;;;;;;5050314;28;20472;-69
2021/07/17 10:36:45;;;;;;;24.63;14.47;;;21.70;97.10;;;;;;5050439;28;20567;-68
2021/07/17 10:39:13;;;;;;;21.90;14.83;;;22.00;97.10;;;;;;5051019;28;20433;-68
2021/07/17 10:41:44;;;;;;;20.30;15.67;;;22.10;96.90;;;;;;5050138;28;20511;-69
2021/07/17 10:44:12;;;;;;;26.00;16.53;;;22.20;96.30;;;;;;5050915;28;20456;-69
2021/07/17 10:46:40;;;;;;;19.63;15.30;;;22.30;96.50;;;;;;5050924;28;20520;-68
2021/07/17 10:49:09;;;;;;;18.73;15.27;;;22.40;96.20;;;;;;5050134;28;20519;-70
2021/07/17 10:51:52;;;;;;;24.40;16.10;;;22.40;95.00;;;;;;5050425;28;20532;-69
2021/07/17 10:54:30;;;;;;;18.70;14.80;;;22.40;94.90;;;;;;5050055;28;20761;-69
2021/07/17 10:56:57;;;;;;;21.63;16.70;;;22.30;94.90;;;;;;5050458;28;20832;-68
2021/07/17 10:59:51;;;;;;;22.03;15.87;;;22.20;94.80;;;;;;5050684;28;20516;-69
2021/07/17 11:02:25;;;;;;;19.03;14.43;;;22.20;95.00;;;;;;5050497;28;20524;-69
2021/07/17 11:05:01;;;;;;;21.90;15.47;;;22.20;94.90;;;;;;5047177;28;20437;-68
2021/07/17 11:07:38;;;;;;;18.80;15.20;;;22.10;94.70;;;;;;5050338;28;20903;-68
2021/07/17 11:10:39;;;;;;;22.47;15.70;;;22.10;94.60;;;;;;5049628;28;20528;-68
2021/07/17 11:13:06;;;;;;;21.20;15.70;;;21.90;94.60;;;;;;5048238;28;20947;-68
2021/07/17 11:15:38;;;;;;;22.30;16.40;;;21.80;94.60;;;;;;5029570;28;20580;-70
2021/07/17 11:18:36;;;;;;;22.17;16.27;;;21.70;94.90;;;;;;5033859;28;20473;-70
2021/07/17 11:21:09;;;;;;;22.40;17.57;;;21.50;95.40;;;;;;5025789;28;20544;-69
2021/07/17 11:23:47;;;;;;;20.97;16.80;;;21.40;95.80;;;;;;5027592;28;20509;-69
2021/07/17 11:26:18;;;;;;;20.90;16.17;;;21.40;96.30;;;;;;5027372;28;20469;-69
2021/07/17 11:29:02;;;;;;;23.33;17.60;;;21.50;96.50;;;;;;5027317;28;20442;-69
2021/07/17 11:31:56;;;;;;;18.97;14.30;;;21.60;96.60;;;;;;5042285;28;20544;-68
2021/07/17 11:34:50;;;;;;;22.30;17.33;;;21.60;96.30;;;;;;5028055;28;20445;-70
2021/07/17 11:37:29;;;;;;;19.83;16.23;;;21.50;96.10;;;;;;5027471;28;20477;-69
2021/07/17 11:40:04;;;;;;;29.20;15.40;;;21.50;96.10;;;;;;5041482;28;20433;-69
2021/07/17 11:42:37;;;;;;;20.17;15.63;;;21.40;96.10;;;;;;5031620;28;20473;-71
2021/07/17 11:45:06;;;;;;;21.13;15.90;;;21.40;96.40;;;;;;5027647;28;20533;-71
2021/07/17 11:47:33;;;;;;;22.23;16.00;;;21.30;96.40;;;;;;5028287;28;20552;-68
2021/07/17 11:50:02;;;;;;;25.90;17.10;;;21.40;96.50;;;;;;5029325;28;20499;-69
2021/07/17 11:52:31;;;;;;;22.33;17.13;;;21.40;96.70;;;;;;5030267;28;20433;-68
2021/07/17 11:55:01;;;;;;;23.10;16.63;;;21.30;96.80;;;;;;5048325;28;20445;-68
2021/07/17 11:57:31;;;;;;;24.73;17.20;;;21.30;97.10;;;;;;5050734;28;20486;-68
2021/07/17 12:00:08;;;;;;;22.23;17.87;;;21.20;97.20;;;;;;5051366;28;20475;-68
2021/07/17 12:02:35;;;;;;;25.00;18.40;;;21.20;97.30;;;;;;5044277;28;21356;-67
2021/07/17 12:05:06;;;;;;;25.13;19.30;;;21.20;97.30;;;;;;5035624;28;20449;-67
2021/07/17 12:07:35;;;;;;;26.67;18.13;;;21.20;97.30;;;;;;5048505;28;20939;-67
2021/07/17 12:10:06;;;;;;;22.50;15.47;;;21.10;97.50;;;;;;5053335;28;20438;-67
2021/07/17 12:12:39;;;;;;;20.40;15.73;;;21.10;97.50;;;;;;5047632;28;20914;-67
2021/07/17 12:15:12;;;;;;;23.73;15.27;;;21.10;97.70;;;;;;5041267;28;20448;-68
2021/07/17 12:17:41;;;;;;;18.43;15.07;;;21.10;97.80;;;;;;5052168;28;20787;-68
2021/07/17 12:20:14;;;;;;;18.83;15.57;;;21.10;98.00;;;;;;5051175;28;20789;-67
2021/07/17 12:22:57;;;;;;;16.80;13.10;;;21.20;98.30;;;;;;5052845;28;20435;-67
2021/07/17 12:25:27;;;;;;;18.10;14.37;;;21.30;98.20;;;;;;5046160;28;20461;-67
2021/07/17 12:28:00;;;;;;;17.27;13.20;;;21.40;98.00;;;;;;5053053;28;20453;-67
2021/07/17 12:30:29;;;;;;;16.23;12.93;;;21.40;98.20;;;;;;5043936;28;20496;-68
2021/07/17 12:33:31;;;;;;;15.20;9.33;;;21.50;98.00;;;;;;5039047;28;20892;-67
2021/07/17 12:36:06;;;;;;;14.53;10.50;;;21.40;97.50;;;;;;5050024;28;20539;-67
2021/07/17 12:38:35;;;;;;;11.40;8.87;;;21.40;97.50;;;;;;5050683;28;20452;-68
2021/07/17 12:41:05;;;;;;;13.80;9.90;;;21.30;97.50;;;;;;5034936;28;20999;-67
2021/07/17 12:43:38;;;;;;;12.93;9.33;;;21.20;97.50;;;;;;5034868;28;20544;-67
2021/07/17 12:46:10;;;;;;;12.20;8.73;;;21.10;97.50;;;;;;5034631;28;20528;-68
2021/07/17 12:48:50;;;;;;;14.90;9.93;;;21.00;97.60;;;;;;5035483;28;20528;-69
2021/07/17 12:51:24;;;;;;;12.33;9.50;;;21.00;97.80;;;;;;5049801;28;21023;-68